Latest Coastal Weather Observations for Cape Byron

IDN60701

Issued at 8:41 am EST Thursday 29 June 2017 (issued every 10 minutes, with the page automatically refreshed every 10 minutes)

About coastal observations | Map of coastal stations | Coastal observations for NSW | Marine services | Other Formats
Station Details ID: 058216 Name: CAPE BYRON AWS Lat: -28.64 Lon: 153.64 Height: 95.0 m
Data from the previous 72 hours. | See also: Recent months at Cape Byron
Date/Time
EST
Temp
°C
Wind Pressure Rain since
9am
mm
Weather Cloud Vis
km
Sea
Height
m
Swell
Dir  Spd
kts
Gust
kts
hPa Trend Height
m
Period
s
Dir
29/08:30am 19.9 N 8 11 1021.0 - 0.0 - - - - - - -
29/08:00am 19.5 NNW 7 10 1021.0 - 0.0 - - - - - - -
29/07:30am 18.8 NNE 6 11 1020.8 - 0.0 - - - - - - -
29/07:00am 18.6 NNW 7 11 1020.7 - 0.0 - - - - - - -
29/06:30am 18.7 NNW 8 12 1020.4 - 0.0 - - - - - - -
29/06:00am 18.4 N 7 11 1020.3 - 0.0 - - - - - - -
29/05:30am 18.7 NNW 9 16 1020.2 - 0.0 - - - - - - -
29/05:00am 18.7 NNW 8 15 1020.2 - 0.0 - - - - - - -
29/04:30am 18.9 N 12 18 1020.6 - 0.0 - - - - - - -
29/04:00am 18.9 N 15 20 1020.6 - 0.0 - - - - - - -
29/03:30am 19.0 N 13 22 1020.9 - 0.0 - - - - - - -
29/03:00am 18.9 N 13 20 1020.9 - 0.0 - - - - - - -
29/02:30am 18.9 NNW 13 21 1021.2 - 0.0 - - - - - - -
29/02:00am 18.8 NNW 11 16 1021.1 - 0.0 - - - - - - -
29/01:30am 18.8 N 12 19 1021.8 - 0.0 - - - - - - -
29/01:00am 18.8 NNW 11 17 1021.8 - 0.0 - - - - - - -
29/12:30am 18.9 NNW 11 17 1022.3 - 0.0 - - - - - - -
29/12:00am 18.8 NNW 10 16 1022.6 - 0.0 - - - - - - -
 
Date/Time
EST
Temp
°C
Wind Pressure Rain since
9am
mm
Weather Cloud Vis
km
Sea
Height
m
Swell
Dir  Spd
kts
Gust
kts
hPa Trend Height
m
Period
s
Dir
28/11:30pm 18.8 NNW 9 15 1022.8 - 0.0 - - - - - - -
28/11:00pm 18.9 NNW 9 15 1023.0 - 0.0 - - - - - - -
28/10:30pm 18.9 NNW 11 16 1023.1 - 0.0 - - - - - - -
28/10:00pm 18.9 NNW 10 14 1023.1 - 0.0 - - - - - - -
28/09:30pm 18.9 N 10 15 1023.3 - 0.0 - - - - - - -
28/09:00pm 18.7 NNW 9 14 1023.3 - 0.0 - - - - - - -
28/08:30pm 19.2 N 11 17 1023.1 - 0.0 - - - - - - -
28/08:00pm 19.4 N 12 17 1023.0 - 0.0 - - - - - - -
28/07:30pm 19.4 N 9 13 1023.1 - 0.0 - - - - - - -
28/07:00pm 19.8 N 12 18 1022.9 - 0.0 - - - - - - -
28/06:30pm 19.9 N 15 19 1022.8 - 0.0 - - - - - - -
28/06:00pm 19.9 N 15 21 1022.5 - 0.0 - - - - - - -
28/05:30pm 20.0 NNE 14 20 1022.3 - 0.0 - - - - - - -
28/05:00pm 20.1 N 13 17 1022.3 - 0.0 - - - - - - -
28/04:30pm 20.2 NNE 12 18 1022.3 - 0.0 - - - - - - -
28/04:00pm 20.4 NNE 10 16 1022.2 - 0.0 - - - - - - -
28/03:30pm 20.8 NNE 13 17 1022.1 - 0.0 - - - - - - -
28/03:00pm 20.7 NNE 12 17 1022.1 - 0.0 - - - - - - -
28/02:30pm 20.9 NNE 12 17 1022.2 - 0.0 - - - - - - -
28/02:00pm 20.6 NNE 12 17 1022.3 - 0.0 - - - - - - -
28/01:30pm 21.2 NNE 10 16 1022.4 - 0.0 - - - - - - -
28/01:00pm 21.5 NNE 10 15 1022.7 - 0.0 - - - - - - -
28/12:30pm 21.3 NNE 10 16 1023.1 - 0.0 - - - - - - -
28/12:00pm 21.4 NNE 9 13 1023.6 - 0.0 - - - - - - -
28/11:30am 21.4 N 9 11 1024.2 - 0.0 - - - - - - -
28/11:00am 21.3 N 6 8 1024.7 - 0.0 - - - - - - -
28/10:30am 20.7 N 6 9 1024.9 - 0.0 - - - - - - -
28/10:00am 20.2 N 4 6 1025.4 - 0.0 - - - - - - -
28/09:30am 18.9 NNW 4 6 1025.4 - 0.0 - - - - - - -
28/09:00am 17.5 NW 4 6 1025.3 - 0.0 - - - - - - -
28/08:30am 18.1 NNW 5 7 1025.1 - 0.0 - - - - - - -
28/08:00am 16.1 NW 6 7 1024.7 - 0.0 - - - - - - -
28/07:30am 16.9 NNW 5 7 1024.7 - 0.0 - - - - - - -
28/07:00am 17.2 NNW 6 9 1024.4 - 0.0 - - - - - - -
28/06:30am 18.0 N 6 9 1024.2 - 0.0 - - - - - - -
28/06:00am 17.3 N 5 7 1024.1 - 0.0 - - - - - - -
28/05:30am 17.5 N 7 8 1023.5 - 0.0 - - - - - - -
28/05:00am 17.1 N 6 8 1023.2 - 0.0 - - - - - - -
28/04:30am 16.4 NNW 6 7 1023.5 - 0.0 - - - - - - -
28/04:00am 16.4 NNW 4 6 1023.7 - 0.0 - - - - - - -
28/03:30am 17.0 NNW 5 6 1023.8 - 0.0 - - - - - - -
28/03:00am 17.0 NNW 6 7 1023.8 - 0.0 - - - - - - -
28/02:30am 16.7 NW 5 7 1023.9 - 0.0 - - - - - - -
28/02:00am 16.4 NW 6 7 1024.2 - 0.0 - - - - - - -
28/01:30am 16.9 NNW 7 8 1024.1 - 0.0 - - - - - - -
28/01:00am 16.2 NW 6 7 1024.1 - 0.0 - - - - - - -
28/12:30am 16.9 NW 5 7 1024.2 - 0.0 - - - - - - -
28/12:00am 16.5 NW 6 8 1024.1 - 0.0 - - - - - - -
 
Date/Time
EST
Temp
°C
Wind Pressure Rain since
9am
mm
Weather Cloud Vis
km
Sea
Height
m
Swell
Dir  Spd
kts
Gust
kts
hPa Trend Height
m
Period
s
Dir
27/11:30pm 16.5 NW 6 7 1024.6 - 0.0 - - - - - - -
27/11:00pm 16.9 NW 4 6 1024.7 - 0.0 - - - - - - -
27/10:30pm 17.2 NW 5 7 1024.8 - 0.0 - - - - - - -
27/10:00pm 18.0 N 6 7 1024.7 - 0.0 - - - - - - -
27/09:30pm 18.2 NE 8 10 1024.9 - 0.0 - - - - - - -
27/09:00pm 18.4 NNE 6 9 1025.1 - 0.0 - - - - - - -
27/08:30pm 17.9 ENE 6 8 1025.2 - 0.0 - - - - - - -
27/08:00pm 17.6 ENE 7 9 1025.0 - 0.0 - - - - - - -
27/07:30pm 17.9 E 3 6 1024.8 - 0.0 - - - - - - -
27/07:00pm 17.9 ESE 3 5 1024.7 - 0.0 - - - - - - -
27/06:30pm 17.9 E 5 7 1024.6 - 0.0 - - - - - - -
27/06:00pm 17.6 E 6 8 1024.5 - 0.0 - - - - - - -
27/05:30pm 17.5 E 7 10 1024.4 - 0.0 - - - - - - -
27/05:00pm 17.8 E 5 7 1024.4 - 0.0 - - - - - - -
27/04:30pm 18.0 E 6 8 1024.1 - 0.0 - - - - - - -
27/04:00pm 18.8 E 6 8 1024.0 - 0.0 - - - - - - -
27/03:30pm 18.8 SE 6 7 1024.0 - 0.0 - - - - - - -
27/03:00pm 18.6 SE 6 8 1024.2 - 0.0 - - - - - - -
27/02:30pm 19.4 SE 7 10 1024.2 - 0.0 - - - - - - -
27/02:00pm 19.0 SE 7 9 1024.2 - 0.0 - - - - - - -
27/01:30pm 18.8 SSE 6 8 1024.4 - 0.0 - - - - - - -
27/01:00pm 18.9 SSE 7 9 1024.5 - 0.0 - - - - - - -
27/12:30pm 18.8 S 6 8 1025.0 - 0.0 - - - - - - -
27/12:00pm 18.8 S 7 9 1025.3 - 0.0 - - - - - - -
27/11:30am 18.5 SSW 6 8 1025.6 - 0.0 - - - - - - -
27/11:00am 18.2 SSW 8 9 1025.9 - 0.0 - - - - - - -
27/10:30am 18.2 SSW 6 7 1026.0 - 0.0 - - - - - - -
27/10:00am 17.8 SW 5 7 1026.1 - 0.0 - - - - - - -
27/09:30am 16.0 WSW 6 8 1026.0 - 0.0 - - - - - - -
27/09:00am 15.2 WSW 8 9 1026.0 - 0.0 - - - - - - -
27/08:30am 14.9 WSW 9 11 1025.5 - 0.0 - - - - - - -
27/08:00am 14.4 WSW 11 14 1025.4 - 0.0 - - - - - - -
27/07:30am 14.2 WSW 13 16 1025.5 - 0.0 - - - - - - -
27/07:00am 14.5 SW 9 11 1025.1 - 0.0 - - - - - - -
27/06:30am 14.4 SW 9 11 1024.7 - 0.0 - - - - - - -
27/06:00am 14.2 WSW 11 14 1024.5 - 0.0 - - - - - - -
27/05:30am 14.4 SW 9 11 1024.1 - 0.0 - - - - - - -
27/05:00am 14.7 SSW 9 10 1023.9 - 0.0 - - - - - - -
27/04:30am 14.9 SW 9 11 1023.9 - 0.0 - - - - - - -
27/04:00am 14.8 SW 9 11 1023.8 - 0.0 - - - - - - -
27/03:30am 15.0 SSW 9 10 1023.8 - 0.0 - - - - - - -
27/03:00am 15.2 SSW 9 11 1023.9 - 0.0 - - - - - - -
27/02:30am 15.1 SW 9 11 1023.9 - 0.0 - - - - - - -
27/02:00am 15.7 SSW 8 11 1023.8 - 0.0 - - - - - - -
27/01:30am 16.7 SW 7 9 1023.8 - 0.0 - - - - - - -
27/01:00am 17.3 SSE 9 14 1023.9 - 0.0 - - - - - - -
27/12:30am 16.8 S 9 12 1023.9 - 0.0 - - - - - - -
27/12:00am 16.8 S 9 11 1023.9 - 0.0 - - - - - - -
 
Date/Time
EST
Temp
°C
Wind Pressure Rain since
9am
mm
Weather Cloud Vis
km
Sea
Height
m
Swell
Dir  Spd
kts
Gust
kts
hPa Trend Height
m
Period
s
Dir
26/11:30pm 16.6 SSW 9 12 1023.9 - 0.0 - - - - - - -
26/11:00pm 17.0 SSW 8 10 1024.1 - 0.0 - - - - - - -
26/10:30pm 17.3 SSW 6 8 1024.2 - 0.0 - - - - - - -
26/10:00pm 18.0 E 7 9 1024.1 - 0.0 - - - - - - -
26/09:30pm 18.1 ESE 8 11 1023.6 - 0.0 - - - - - - -
26/09:00pm 18.0 E 9 12 1023.3 - 0.0 - - - - - - -
26/08:30pm 18.1 E 8 11 1023.2 - 0.0 - - - - - - -
26/08:00pm 18.3 E 10 14 1023.1 - 0.0 - - - - - - -
26/07:30pm 18.4 E 13 16 1022.7 - 0.0 - - - - - - -
26/07:00pm 18.8 ESE 12 15 1022.3 - 0.0 - - - - - - -
26/06:30pm 18.7 ESE 13 15 1021.8 - 0.0 - - - - - - -
26/06:00pm 18.8 SE 13 17 1021.8 - 0.0 - - - - - - -
26/05:30pm 18.8 SE 11 14 1021.3 - 0.0 - - - - - - -
26/05:00pm 18.8 SSE 9 13 1021.3 - 0.0 - - - - - - -
26/04:30pm 18.7 SSE 11 13 1021.1 - 0.0 - - - - - - -
26/04:00pm 19.0 SSE 9 12 1021.0 - 0.0 - - - - - - -
26/03:30pm 19.3 S 11 15 1020.7 - 0.0 - - - - - - -
26/03:00pm 19.5 SSE 10 14 1020.6 - 0.0 - - - - - - -
26/02:30pm 19.8 SSE 9 14 1020.3 - 0.0 - - - - - - -
26/02:00pm 20.6 SSE 8 11 1020.3 - 0.0 - - - - - - -
26/01:30pm 20.4 S 9 11 1020.3 - 0.0 - - - - - - -
26/01:00pm 20.3 S 11 12 1020.3 - 0.0 - - - - - - -
26/12:30pm 19.8 SSW 9 11 1020.8 - 0.0 - - - - - - -
26/12:00pm 19.5 S 7 9 1020.9 - 0.0 - - - - - - -
26/11:30am 19.7 SSW 9 11 1021.1 - 0.0 - - - - - - -
26/11:00am 19.0 SSW 9 11 1021.3 - 0.0 - - - - - - -
26/10:30am 18.9 S 4 6 1021.6 - 0.0 - - - - - - -
26/10:00am 17.9 SSW 3 5 1021.7 - 0.0 - - - - - - -
26/09:30am 16.8 WSW 7 10 1021.7 - 0.0 - - - - - - -
26/09:00am 15.6 WSW 9 11 1021.5 - 0.0 - - - - - - -

Other Formats:

Comma delimited format used in spreadsheet applications
http://www.bom.gov.au/fwo/IDN60701/IDN60701.94599.axf

JavaScript Object Notation format (JSON) in row-major order
http://www.bom.gov.au/fwo/IDN60701/IDN60701.94599.json